Time;durP1;ratioP1;P1;durP2;ratioP2;P2;SDS_P1;SDS_P2;PMS_P1;PMS_P2;Temp;Humidity;BMP_temperature;BMP_pressure;BME280_temperature;BME280_humidity;BME280_pressure;Samples;Min_cycle;Max_cycle;Signal;HPM_P1;HPM_P2
2021/12/08 00:01:14;;;;;;;2.08;1.60;;;5.30;99.90;;;;;;5013230;28;20048;-48
2021/12/08 00:03:39;;;;;;;3.78;1.52;;;5.40;99.90;;;;;;5014234;28;20033;-43
2021/12/08 00:06:06;;;;;;;1.58;1.00;;;5.40;99.90;;;;;;5014442;28;20395;-40
2021/12/08 00:08:33;;;;;;;3.28;1.75;;;5.40;99.90;;;;;;5014303;28;20061;-43
2021/12/08 00:13:29;;;;;;;4.18;1.77;;;5.50;99.90;;;;;;5014264;28;20050;-45
2021/12/08 00:15:58;;;;;;;4.97;1.95;;;5.50;99.90;;;;;;5013986;28;20026;-42
2021/12/08 00:18:28;;;;;;;3.33;1.63;;;5.50;99.90;;;;;;5013567;28;20411;-43
2021/12/08 00:20:57;;;;;;;2.00;1.90;;;5.50;99.90;;;;;;5013724;28;20029;-44
2021/12/08 00:23:23;;;;;;;11.95;6.90;;;5.40;99.90;;;;;;5013930;28;20395;-44
2021/12/08 00:25:49;;;;;;;7.45;4.15;;;5.50;99.90;;;;;;5013849;28;20447;-45
2021/12/08 00:28:15;;;;;;;3.88;2.13;;;5.50;99.90;;;;;;5013902;28;20025;-42
2021/12/08 00:30:44;;;;;;;3.83;1.17;;;5.60;99.90;;;;;;5013149;28;20111;-43
2021/12/08 00:33:10;;;;;;;2.28;1.42;;;5.50;99.90;;;;;;5012939;28;20026;-44
2021/12/08 00:35:37;;;;;;;2.28;1.65;;;5.40;99.90;;;;;;5023299;22;20051;-48
2021/12/08 00:38:04;;;;;;;6.38;1.70;;;5.30;99.90;;;;;;4994021;28;20018;-44
2021/12/08 00:40:30;;;;;;;7.22;1.60;;;5.30;99.90;;;;;;4992325;28;20026;-47
2021/12/08 00:42:56;;;;;;;2.20;1.17;;;5.30;99.90;;;;;;4992459;28;20018;-44
2021/12/08 00:45:23;;;;;;;2.20;1.40;;;5.20;99.90;;;;;;4993749;28;20022;-46
2021/12/08 00:47:49;;;;;;;1.38;1.05;;;5.20;99.90;;;;;;4994084;28;20030;-48
2021/12/08 00:50:17;;;;;;;1.13;1.00;;;5.30;99.90;;;;;;4993592;28;20369;-46
2021/12/08 00:52:43;;;;;;;3.75;1.38;;;5.30;99.90;;;;;;4993959;28;20117;-44
2021/12/08 00:55:11;;;;;;;2.60;1.65;;;5.20;99.90;;;;;;4992476;28;20455;-46
2021/12/08 00:57:37;;;;;;;4.25;1.20;;;5.10;99.90;;;;;;4992415;28;20460;-46
2021/12/08 01:00:09;;;;;;;2.38;1.20;;;5.10;99.90;;;;;;4993327;28;20036;-45
2021/12/08 01:02:39;;;;;;;4.95;1.60;;;5.10;99.90;;;;;;4993702;28;20357;-48
2021/12/08 01:05:09;;;;;;;2.00;1.13;;;5.00;99.90;;;;;;4993318;28;20018;-45
2021/12/08 01:07:34;;;;;;;1.60;1.50;;;5.10;99.90;;;;;;4993521;28;20061;-45
2021/12/08 01:10:00;;;;;;;2.65;1.40;;;5.10;99.90;;;;;;4993148;28;20066;-46
2021/12/08 01:12:26;;;;;;;2.70;1.35;;;5.10;99.90;;;;;;4993504;28;20105;-46
2021/12/08 01:14:51;;;;;;;2.33;1.15;;;5.10;99.90;;;;;;4993431;28;20038;-49
2021/12/08 01:17:17;;;;;;;1.80;1.33;;;5.10;99.90;;;;;;4993117;28;20084;-45
2021/12/08 01:19:42;;;;;;;5.57;2.15;;;5.10;99.90;;;;;;4993189;28;20026;-45
2021/12/08 01:22:08;;;;;;;1.77;1.55;;;5.00;99.90;;;;;;4993164;28;20444;-45
2021/12/08 01:24:33;;;;;;;1.92;1.30;;;5.00;99.90;;;;;;4993092;28;20041;-46
2021/12/08 01:26:59;;;;;;;4.80;1.52;;;5.00;99.90;;;;;;4993315;28;20495;-48
2021/12/08 01:29:25;;;;;;;5.07;1.83;;;4.90;99.90;;;;;;4992996;28;20014;-45
2021/12/08 01:31:50;;;;;;;3.42;1.45;;;4.90;99.90;;;;;;4993094;28;20037;-44
2021/12/08 01:34:16;;;;;;;3.38;1.92;;;4.80;99.90;;;;;;4993188;28;20175;-47
2021/12/08 01:36:42;;;;;;;2.00;1.10;;;4.80;99.90;;;;;;4992866;28;20491;-46
2021/12/08 01:39:08;;;;;;;2.30;1.30;;;4.90;99.90;;;;;;4992598;28;20479;-46
2021/12/08 01:41:34;;;;;;;1.60;1.50;;;4.70;99.90;;;;;;4992861;28;20035;-45
2021/12/08 01:46:45;;;;;;;3.17;1.52;;;4.70;99.90;;;;;;4992189;28;20073;-44
2021/12/08 01:49:12;;;;;;;1.85;1.38;;;4.50;99.90;;;;;;4992574;28;20484;-48
2021/12/08 01:51:38;;;;;;;4.85;1.80;;;4.40;99.90;;;;;;4992839;28;20110;-45
2021/12/08 01:54:05;;;;;;;3.03;1.33;;;4.30;99.90;;;;;;4992682;28;20515;-44
2021/12/08 01:56:33;;;;;;;6.00;1.60;;;4.20;99.90;;;;;;4992671;28;20026;-44
2021/12/08 01:59:00;;;;;;;4.35;1.73;;;4.10;99.90;;;;;;4992682;28;20443;-44
2021/12/08 02:01:28;;;;;;;1.60;1.33;;;4.10;99.90;;;;;;4992546;28;20445;-46
2021/12/08 02:03:53;;;;;;;2.20;1.45;;;4.00;99.90;;;;;;4991124;28;20053;-44
2021/12/08 02:06:20;;;;;;;3.22;2.00;;;4.00;99.90;;;;;;4992463;28;20022;-44
2021/12/08 02:08:48;;;;;;;4.00;1.65;;;4.00;99.90;;;;;;4992468;28;20539;-44
2021/12/08 02:11:14;;;;;;;5.07;1.45;;;4.00;99.90;;;;;;4992175;28;20109;-42
2021/12/08 02:13:40;;;;;;;4.10;1.77;;;4.00;99.90;;;;;;4992644;28;20106;-44
2021/12/08 02:16:14;;;;;;;4.00;1.73;;;4.00;99.90;;;;;;4992703;28;20022;-44
2021/12/08 02:18:40;;;;;;;3.00;1.70;;;4.00;99.90;;;;;;4991948;28;20392;-44
2021/12/08 02:21:19;;;;;;;3.25;1.83;;;4.00;99.90;;;;;;4992149;28;20022;-44
2021/12/08 02:23:45;;;;;;;4.05;1.65;;;4.00;99.90;;;;;;4992975;28;20493;-46
2021/12/08 02:26:11;;;;;;;5.45;1.50;;;4.00;99.90;;;;;;4992409;28;20080;-44
2021/12/08 02:28:36;;;;;;;3.35;1.85;;;3.90;99.90;;;;;;4992331;28;20037;-45
2021/12/08 02:31:06;;;;;;;6.43;2.15;;;4.00;99.90;;;;;;4991980;28;20105;-43
2021/12/08 02:47:28;;;;;;;4.45;1.70;;;4.20;99.90;;;;;;4992559;28;20449;-47
2021/12/08 02:53:16;;;;;;;3.80;1.55;;;4.10;99.90;;;;;;4991627;28;20098;-45
2021/12/08 02:55:43;;;;;;;2.38;1.08;;;4.20;99.90;;;;;;4993862;28;20026;-47
2021/12/08 02:58:09;;;;;;;4.90;1.60;;;4.30;99.90;;;;;;4996128;28;20403;-45
2021/12/08 03:00:51;;;;;;;1.80;1.70;;;4.30;99.90;;;;;;4995539;28;20088;-44
2021/12/08 03:03:17;;;;;;;5.47;1.33;;;4.30;99.90;;;;;;4995966;28;20206;-45
2021/12/08 03:05:43;;;;;;;1.98;1.42;;;4.40;99.90;;;;;;4994474;28;20069;-46
2021/12/08 03:08:09;;;;;;;2.78;1.38;;;4.50;99.90;;;;;;4995897;28;20053;-44
2021/12/08 03:10:43;;;;;;;1.67;1.50;;;4.50;99.90;;;;;;4995799;28;20023;-49
2021/12/08 03:13:09;;;;;;;3.55;1.40;;;4.60;99.90;;;;;;4994400;28;20026;-45
2021/12/08 03:15:35;;;;;;;4.15;2.33;;;4.60;99.90;;;;;;4995528;28;20066;-45
2021/12/08 03:18:01;;;;;;;2.13;1.27;;;4.70;99.90;;;;;;4995392;28;20030;-48
2021/12/08 03:20:38;;;;;;;2.67;1.40;;;4.70;99.90;;;;;;4995322;28;20392;-44
2021/12/08 03:23:09;;;;;;;4.38;1.55;;;4.80;99.90;;;;;;4995543;28;20029;-45
2021/12/08 03:25:39;;;;;;;8.40;1.52;;;4.80;99.90;;;;;;4995315;28;20018;-48
2021/12/08 03:28:20;;;;;;;1.83;1.52;;;4.70;99.90;;;;;;4995481;28;20420;-46
2021/12/08 03:31:12;;;;;;;4.65;2.17;;;4.70;99.90;;;;;;4995089;28;20027;-45
2021/12/08 03:33:37;;;;;;;1.63;1.40;;;4.70;99.90;;;;;;4995349;28;20399;-48
2021/12/08 03:36:03;;;;;;;3.50;1.80;;;4.80;99.90;;;;;;4995192;28;20109;-45
2021/12/08 03:38:29;;;;;;;4.88;2.47;;;4.80;99.90;;;;;;4993924;28;20034;-47
2021/12/08 03:40:57;;;;;;;3.05;1.80;;;4.80;99.90;;;;;;4995061;28;20089;-45
2021/12/08 03:43:23;;;;;;;3.33;2.22;;;4.80;99.90;;;;;;4995054;28;20029;-45
2021/12/08 03:45:50;;;;;;;1.98;1.17;;;4.80;99.90;;;;;;4994553;28;20026;-45
2021/12/08 03:48:20;;;;;;;2.70;1.70;;;4.90;99.90;;;;;;4996134;28;20023;-46
2021/12/08 03:50:46;;;;;;;2.40;1.60;;;5.00;99.90;;;;;;4994744;28;20101;-45
2021/12/08 03:53:15;;;;;;;3.50;1.50;;;5.10;99.90;;;;;;4993718;28;20054;-45
2021/12/08 03:55:43;;;;;;;2.42;1.55;;;5.00;99.90;;;;;;4994785;28;20022;-47
2021/12/08 03:58:10;;;;;;;1.67;1.23;;;5.10;99.90;;;;;;4993515;28;20400;-45
2021/12/08 04:00:37;;;;;;;3.05;1.73;;;5.10;99.90;;;;;;4994527;28;20443;-44
2021/12/08 04:03:04;;;;;;;3.17;1.75;;;5.10;99.90;;;;;;4994679;28;20030;-46
2021/12/08 04:08:17;;;;;;;2.15;1.63;;;5.00;99.90;;;;;;4993698;28;20032;-45
2021/12/08 04:10:49;;;;;;;1.63;1.52;;;5.00;99.90;;;;;;4994242;28;20062;-48
2021/12/08 04:13:19;;;;;;;3.30;1.80;;;4.90;99.90;;;;;;4994685;28;20484;-45
2021/12/08 04:15:45;;;;;;;3.60;1.50;;;4.90;99.90;;;;;;4994580;28;20030;-44
2021/12/08 04:18:11;;;;;;;2.03;1.80;;;4.90;99.90;;;;;;4994244;28;20403;-44
2021/12/08 04:20:42;;;;;;;4.70;1.70;;;4.80;99.90;;;;;;4994176;28;20026;-45
2021/12/08 04:23:10;;;;;;;2.47;1.70;;;4.80;99.90;;;;;;4994503;28;20030;-45
2021/12/08 04:25:38;;;;;;;3.08;2.13;;;4.90;99.90;;;;;;4994141;28;20037;-50
2021/12/08 04:28:09;;;;;;;4.15;1.90;;;4.90;99.90;;;;;;4994233;28;20094;-47
2021/12/08 04:30:40;;;;;;;7.53;2.17;;;5.00;99.90;;;;;;4994082;28;20022;-49
2021/12/08 04:33:06;;;;;;;3.65;1.95;;;5.00;99.90;;;;;;4994281;28;20033;-46
2021/12/08 04:35:32;;;;;;;4.80;2.10;;;5.10;99.90;;;;;;4993850;28;20140;-44
2021/12/08 04:38:04;;;;;;;3.38;1.90;;;5.00;99.90;;;;;;4994119;28;20026;-45
2021/12/08 04:41:03;;;;;;;4.25;2.10;;;5.00;99.90;;;;;;4992471;28;20026;-45
2021/12/08 05:00:46;;;;;;;3.30;2.40;;;5.00;99.90;;;;;;4993445;28;20081;-49
2021/12/08 05:03:36;;;;;;;4.53;1.95;;;5.00;99.90;;;;;;4993910;28;20050;-45
2021/12/08 05:08:43;;;;;;;3.10;2.30;;;5.10;99.90;;;;;;4993694;28;20027;-45
2021/12/08 05:11:32;;;;;;;1.65;1.55;;;5.10;99.90;;;;;;4993397;28;20027;-46
2021/12/08 05:14:08;;;;;;;2.78;2.40;;;5.10;99.90;;;;;;4993791;28;20499;-47
2021/12/08 05:16:38;;;;;;;2.33;2.13;;;5.10;99.90;;;;;;4991867;28;20400;-48
2021/12/08 05:19:07;;;;;;;4.70;2.13;;;5.10;99.90;;;;;;4993389;28;20022;-47
2021/12/08 05:21:48;;;;;;;2.55;2.03;;;5.10;99.90;;;;;;4993344;28;20026;-49
2021/12/08 05:24:19;;;;;;;1.95;1.85;;;5.10;99.90;;;;;;4993506;28;20037;-46
2021/12/08 05:26:50;;;;;;;5.80;2.53;;;5.20;99.90;;;;;;4993192;28;20033;-46
2021/12/08 05:29:41;;;;;;;2.58;2.25;;;5.20;99.90;;;;;;4992903;28;20476;-46
2021/12/08 05:32:08;;;;;;;2.03;1.70;;;5.20;99.90;;;;;;4993157;28;20018;-47
2021/12/08 05:34:35;;;;;;;4.88;2.35;;;5.20;99.90;;;;;;4993058;28;20037;-47
2021/12/08 05:37:01;;;;;;;1.90;1.80;;;5.10;99.90;;;;;;4992861;28;20484;-47
2021/12/08 05:39:29;;;;;;;3.10;2.05;;;5.10;99.90;;;;;;4992680;28;20057;-47
2021/12/08 05:42:00;;;;;;;2.22;1.92;;;5.10;99.90;;;;;;4992930;28;20037;-47
2021/12/08 05:44:26;;;;;;;5.35;2.33;;;5.20;99.90;;;;;;4992870;28;20382;-49
2021/12/08 05:46:55;;;;;;;3.10;2.17;;;5.20;99.90;;;;;;4991474;28;20026;-46
2021/12/08 05:49:21;;;;;;;3.05;2.10;;;5.20;99.90;;;;;;4992603;28;20061;-46
2021/12/08 05:51:50;;;;;;;5.05;2.22;;;5.20;99.90;;;;;;4992806;28;20026;-45
2021/12/08 05:54:29;;;;;;;3.55;2.20;;;5.20;99.90;;;;;;4992684;28;20029;-47
2021/12/08 05:56:54;;;;;;;5.07;2.33;;;5.20;99.90;;;;;;4992767;28;20023;-47
2021/12/08 05:59:20;;;;;;;7.50;2.80;;;5.20;99.90;;;;;;4992819;28;20056;-49
2021/12/08 06:01:46;;;;;;;2.53;1.80;;;5.20;99.90;;;;;;4992594;28;20030;-46
2021/12/08 06:04:12;;;;;;;3.30;2.17;;;5.10;99.90;;;;;;4992524;28;20029;-47
2021/12/08 06:06:38;;;;;;;3.55;2.08;;;5.10;99.90;;;;;;4992374;28;20026;-48
2021/12/08 06:09:07;;;;;;;2.35;2.05;;;5.20;99.90;;;;;;4990987;28;20058;-43
2021/12/08 06:11:33;;;;;;;3.10;2.13;;;5.20;99.90;;;;;;4992432;28;20014;-46
2021/12/08 06:14:00;;;;;;;6.63;3.13;;;5.10;99.90;;;;;;4991179;28;20728;-45
2021/12/08 06:16:31;;;;;;;2.53;2.15;;;5.10;99.90;;;;;;4991004;28;20022;-46
2021/12/08 06:18:57;;;;;;;3.03;2.63;;;5.10;99.90;;;;;;4992111;28;20092;-49
2021/12/08 06:21:26;;;;;;;3.33;2.78;;;5.10;99.90;;;;;;4992139;28;20034;-46
2021/12/08 06:23:53;;;;;;;6.82;2.45;;;5.10;99.90;;;;;;4992371;28;20030;-48
2021/12/08 06:26:20;;;;;;;6.03;2.70;;;5.10;99.90;;;;;;4990811;28;20030;-49
2021/12/08 06:28:46;;;;;;;3.25;2.60;;;5.10;99.90;;;;;;4992329;28;20015;-47
2021/12/08 06:31:14;;;;;;;4.68;2.83;;;5.10;99.90;;;;;;4990061;28;20029;-46
2021/12/08 06:33:40;;;;;;;7.53;3.88;;;5.10;99.90;;;;;;4990850;28;20129;-47
2021/12/08 06:36:16;;;;;;;6.03;2.75;;;5.10;99.90;;;;;;5023382;23;20049;-43
2021/12/08 06:38:43;;;;;;;3.85;2.83;;;5.10;99.90;;;;;;5031567;28;20035;-45
2021/12/08 06:41:13;;;;;;;4.03;3.53;;;5.20;99.90;;;;;;5029643;28;20017;-46
2021/12/08 06:43:42;;;;;;;5.85;3.33;;;5.20;99.90;;;;;;5031486;28;20022;-44
2021/12/08 06:46:09;;;;;;;4.82;3.13;;;5.20;99.90;;;;;;5031429;28;20053;-42
2021/12/08 06:48:44;;;;;;;4.90;3.78;;;5.10;99.90;;;;;;5031991;28;20030;-43
2021/12/08 06:51:16;;;;;;;7.28;3.90;;;5.20;99.90;;;;;;5031714;28;20026;-45
2021/12/08 06:53:45;;;;;;;7.00;4.65;;;5.20;99.90;;;;;;5032257;28;20079;-43
2021/12/08 06:56:16;;;;;;;11.00;4.45;;;5.20;99.90;;;;;;5031628;28;20048;-43
2021/12/08 06:58:47;;;;;;;6.95;3.83;;;5.10;99.90;;;;;;5031826;28;20033;-47
2021/12/08 07:02:05;;;;;;;11.63;3.63;;;5.10;99.90;;;;;;5031144;28;20413;-45
2021/12/08 07:04:31;;;;;;;6.93;4.55;;;5.10;99.90;;;;;;5029715;28;20045;-47
2021/12/08 07:07:14;;;;;;;5.60;3.95;;;5.10;99.90;;;;;;5031543;28;20040;-44
2021/12/08 07:09:59;;;;;;;7.18;4.68;;;5.00;99.90;;;;;;5031053;28;20045;-44
2021/12/08 07:12:29;;;;;;;7.78;4.75;;;5.10;99.90;;;;;;5031544;28;20032;-45
2021/12/08 07:15:08;;;;;;;8.05;4.93;;;5.10;99.90;;;;;;5031461;28;20018;-43
2021/12/08 07:17:37;;;;;;;8.98;5.10;;;5.10;99.90;;;;;;5031194;28;20032;-43
2021/12/08 07:22:49;;;;;;;6.63;4.95;;;5.10;99.90;;;;;;5031438;28;20026;-44
2021/12/08 07:25:17;;;;;;;9.07;5.35;;;5.10;99.90;;;;;;5031079;28;20064;-44
2021/12/08 07:27:44;;;;;;;7.80;5.22;;;5.10;99.90;;;;;;5031099;28;20025;-43
2021/12/08 07:30:16;;;;;;;8.43;5.93;;;5.10;99.90;;;;;;5030893;28;20034;-42
2021/12/08 07:32:42;;;;;;;9.00;5.95;;;5.10;99.90;;;;;;5031048;28;20025;-43
2021/12/08 07:35:25;;;;;;;11.35;6.07;;;5.10;99.90;;;;;;5030859;28;20029;-43
2021/12/08 07:37:51;;;;;;;8.02;5.47;;;5.10;99.90;;;;;;5031057;28;20037;-45
2021/12/08 07:40:22;;;;;;;15.15;6.30;;;5.00;99.90;;;;;;5030873;28;20049;-46
2021/12/08 07:42:54;;;;;;;8.45;5.50;;;5.00;99.90;;;;;;5034691;28;20032;-47
2021/12/08 07:45:35;;;;;;;12.68;6.35;;;5.00;99.90;;;;;;5034989;28;20041;-40
2021/12/08 07:48:06;;;;;;;9.43;5.63;;;5.00;99.90;;;;;;5034526;28;20030;-44
2021/12/08 07:50:37;;;;;;;9.45;6.32;;;4.90;99.90;;;;;;5035126;28;20026;-46
2021/12/08 07:53:06;;;;;;;12.02;7.32;;;5.00;99.90;;;;;;5034704;28;20029;-45
2021/12/08 07:55:36;;;;;;;9.70;6.00;;;4.90;99.90;;;;;;5034418;28;20025;-45
2021/12/08 07:58:04;;;;;;;12.60;6.07;;;4.90;99.90;;;;;;5034221;28;20030;-43
2021/12/08 08:00:41;;;;;;;12.40;6.70;;;4.90;99.90;;;;;;5033848;28;20503;-44
2021/12/08 08:03:08;;;;;;;12.98;6.63;;;5.00;99.90;;;;;;5033926;28;20383;-43
2021/12/08 08:05:35;;;;;;;8.35;6.57;;;4.90;99.90;;;;;;5034767;28;20026;-43
2021/12/08 08:08:04;;;;;;;7.88;6.55;;;4.90;99.90;;;;;;5034483;28;20084;-45
2021/12/08 08:10:32;;;;;;;8.57;6.03;;;5.00;99.90;;;;;;5033752;28;20104;-43
2021/12/08 08:13:02;;;;;;;8.82;5.90;;;5.10;99.90;;;;;;5033773;28;20026;-44
2021/12/08 08:15:30;;;;;;;10.20;6.72;;;5.20;99.90;;;;;;5033860;28;20022;-44
2021/12/08 08:17:56;;;;;;;13.07;6.60;;;5.20;99.90;;;;;;5032286;28;20040;-46
2021/12/08 08:20:29;;;;;;;8.73;5.93;;;5.20;99.90;;;;;;5020567;28;20029;-48
2021/12/08 08:22:58;;;;;;;11.00;5.85;;;5.20;99.90;;;;;;5016619;28;20502;-43
2021/12/08 08:25:28;;;;;;;10.05;6.85;;;5.20;99.90;;;;;;5033385;28;20116;-46
2021/12/08 08:27:54;;;;;;;13.90;7.30;;;5.20;99.90;;;;;;5033289;28;20029;-43
2021/12/08 08:30:24;;;;;;;9.50;6.85;;;5.20;99.90;;;;;;5032876;28;20033;-43
2021/12/08 08:32:52;;;;;;;12.68;7.95;;;5.30;99.90;;;;;;5030209;28;20056;-46
2021/12/08 08:35:30;;;;;;;13.57;6.82;;;5.30;99.90;;;;;;5033439;28;20030;-46
2021/12/08 08:37:59;;;;;;;10.07;5.72;;;5.30;99.90;;;;;;5032296;28;20442;-44
2021/12/08 08:40:31;;;;;;;10.88;6.68;;;5.20;99.90;;;;;;5031583;28;20040;-43
2021/12/08 08:42:58;;;;;;;10.35;6.00;;;5.20;99.90;;;;;;5033423;28;20109;-41
2021/12/08 08:45:36;;;;;;;10.32;6.40;;;5.20;99.90;;;;;;5032882;28;20458;-42
2021/12/08 08:48:06;;;;;;;10.50;6.78;;;5.30;99.90;;;;;;5032305;28;20029;-44
2021/12/08 08:51:11;;;;;;;9.45;6.55;;;5.20;99.90;;;;;;5032351;28;20116;-44
2021/12/08 08:53:39;;;;;;;12.52;7.07;;;5.30;99.90;;;;;;5032852;28;20438;-43
2021/12/08 08:56:17;;;;;;;11.27;6.85;;;5.30;99.90;;;;;;5034261;28;20380;-41
2021/12/08 08:58:49;;;;;;;11.60;6.45;;;5.30;99.90;;;;;;5033131;28;20033;-42
2021/12/08 09:01:26;;;;;;;13.98;6.65;;;5.30;99.90;;;;;;5033026;28;20030;-43
2021/12/08 09:04:15;;;;;;;10.55;6.40;;;5.30;99.90;;;;;;5033009;28;20021;-43
2021/12/08 09:06:45;;;;;;;9.05;6.22;;;5.30;99.90;;;;;;5033153;28;20041;-47
2021/12/08 09:09:20;;;;;;;11.18;6.45;;;5.40;99.90;;;;;;5033295;28;20076;-41
2021/12/08 09:12:01;;;;;;;10.00;6.32;;;5.40;99.90;;;;;;5033272;28;20025;-41
2021/12/08 09:14:33;;;;;;;13.88;6.75;;;5.60;99.90;;;;;;5033582;28;20120;-41
2021/12/08 09:17:14;;;;;;;10.55;6.22;;;5.60;99.90;;;;;;5033178;28;20033;-43
2021/12/08 09:19:50;;;;;;;8.90;5.97;;;5.60;99.90;;;;;;5032668;28;20026;-43
2021/12/08 09:22:54;;;;;;;13.00;5.38;;;5.60;99.90;;;;;;5033153;28;20025;-43
2021/12/08 09:25:25;;;;;;;13.70;6.10;;;5.60;99.90;;;;;;5032565;28;20113;-42
2021/12/08 09:27:56;;;;;;;8.45;5.85;;;5.60;99.90;;;;;;5032888;28;20100;-43
2021/12/08 09:30:21;;;;;;;10.20;5.32;;;5.60;99.90;;;;;;5033520;28;20048;-42
2021/12/08 09:32:52;;;;;;;10.30;6.50;;;5.70;99.90;;;;;;5033372;28;20025;-43
2021/12/08 09:35:30;;;;;;;8.90;5.70;;;5.70;99.90;;;;;;5032995;28;20044;-43
2021/12/08 09:38:01;;;;;;;11.27;6.82;;;5.80;99.90;;;;;;5033057;28;20063;-43
2021/12/08 09:40:37;;;;;;;12.35;7.82;;;5.70;99.90;;;;;;5032839;28;20578;-46
2021/12/08 09:43:12;;;;;;;8.90;6.28;;;5.80;99.90;;;;;;5032945;28;20029;-42
2021/12/08 09:46:00;;;;;;;6.63;5.13;;;5.80;99.90;;;;;;5032835;28;20108;-42
2021/12/08 09:48:29;;;;;;;6.65;5.45;;;5.80;99.90;;;;;;5032982;28;20259;-42
2021/12/08 09:50:57;;;;;;;8.75;5.90;;;5.90;99.90;;;;;;5034215;28;20040;-42
2021/12/08 09:53:24;;;;;;;7.95;5.93;;;5.90;99.90;;;;;;5033679;28;20519;-42
2021/12/08 09:55:50;;;;;;;7.18;5.30;;;5.80;99.90;;;;;;5033346;28;20495;-47
2021/12/08 09:58:16;;;;;;;9.73;5.93;;;5.80;99.90;;;;;;5033122;28;20025;-42
2021/12/08 10:00:45;;;;;;;8.75;5.32;;;5.80;99.90;;;;;;5032419;28;20034;-43
2021/12/08 10:03:13;;;;;;;8.05;5.65;;;5.80;99.90;;;;;;5032026;28;20028;-43
2021/12/08 10:05:41;;;;;;;6.88;5.18;;;6.00;99.90;;;;;;5031613;28;20379;-42
2021/12/08 10:08:08;;;;;;;10.07;6.30;;;5.90;99.90;;;;;;5032008;28;20017;-43
2021/12/08 10:10:35;;;;;;;9.05;6.55;;;6.00;99.90;;;;;;5031826;28;20026;-45
2021/12/08 10:13:01;;;;;;;13.88;7.13;;;5.90;99.90;;;;;;5032418;28;20391;-43
2021/12/08 10:15:27;;;;;;;11.45;6.63;;;5.90;99.90;;;;;;5031987;28;20029;-42
2021/12/08 10:17:55;;;;;;;10.55;6.40;;;5.80;99.90;;;;;;5033115;28;20395;-42
2021/12/08 10:20:24;;;;;;;9.35;7.00;;;5.80;99.90;;;;;;5033164;28;20394;-43
2021/12/08 10:23:17;;;;;;;13.68;6.75;;;5.90;99.90;;;;;;5033696;28;20025;-38
2021/12/08 10:25:54;;;;;;;10.55;7.20;;;5.90;99.90;;;;;;5032094;28;20029;-44
2021/12/08 10:28:25;;;;;;;15.55;7.20;;;6.00;99.90;;;;;;5033401;28;20471;-42
2021/12/08 10:30:55;;;;;;;10.55;6.85;;;6.00;99.90;;;;;;5032042;28;20038;-44
2021/12/08 10:33:48;;;;;;;9.10;6.82;;;6.10;99.90;;;;;;5022849;28;20056;-41
2021/12/08 10:36:36;;;;;;;10.80;6.88;;;6.20;99.90;;;;;;5014847;28;20462;-41
2021/12/08 10:39:27;;;;;;;10.52;7.28;;;6.20;99.90;;;;;;5031755;28;20093;-45
2021/12/08 10:42:17;;;;;;;11.60;6.93;;;6.20;99.90;;;;;;5026608;28;20040;-42
2021/12/08 10:45:07;;;;;;;11.00;6.15;;;6.20;99.90;;;;;;5031293;28;20030;-43
2021/12/08 10:47:35;;;;;;;11.73;7.28;;;6.30;99.90;;;;;;5017686;28;20543;-43
2021/12/08 10:56:01;;;;;;;13.50;8.38;;;6.50;99.90;;;;;;5012294;28;20033;-41
2021/12/08 10:58:32;;;;;;;10.90;7.10;;;6.40;99.90;;;;;;5012052;28;20018;-45
2021/12/08 11:01:07;;;;;;;12.68;7.45;;;6.40;99.90;;;;;;5020410;28;20104;-42
2021/12/08 11:03:35;;;;;;;8.60;7.30;;;6.40;99.90;;;;;;5024856;28;20566;-40
2021/12/08 11:06:04;;;;;;;10.13;8.02;;;6.40;99.90;;;;;;5031089;28;20025;-44
2021/12/08 11:08:43;;;;;;;11.55;7.25;;;6.40;99.90;;;;;;5030973;28;20029;-41
2021/12/08 11:11:20;;;;;;;10.70;7.63;;;6.50;99.90;;;;;;5031315;28;20184;-41
2021/12/08 11:13:52;;;;;;;12.82;8.40;;;6.40;99.90;;;;;;5031397;28;20030;-43
2021/12/08 11:16:26;;;;;;;9.32;7.78;;;6.50;99.90;;;;;;5032696;28;20028;-45
2021/12/08 11:19:02;;;;;;;12.37;8.57;;;6.50;99.90;;;;;;5040784;28;20033;-44
2021/12/08 11:21:33;;;;;;;;;;;6.40;99.90;;;;;;5041733;28;20029;-41
2021/12/08 11:23:59;;;;;;;12.73;8.35;;;6.40;99.90;;;;;;5026774;28;20310;-41
2021/12/08 11:26:30;;;;;;;11.07;8.40;;;6.50;99.90;;;;;;5014905;28;20088;-41
2021/12/08 11:29:14;;;;;;;10.05;7.65;;;6.40;99.90;;;;;;5030860;28;20040;-42
2021/12/08 11:31:44;;;;;;;10.48;9.02;;;6.40;99.90;;;;;;5037473;28;20029;-39
2021/12/08 11:34:15;;;;;;;14.52;8.23;;;6.50;99.90;;;;;;5040108;28;20044;-39
2021/12/08 11:36:41;;;;;;;11.25;8.45;;;6.50;99.90;;;;;;5035287;28;20034;-44
2021/12/08 11:39:27;;;;;;;14.02;8.88;;;6.50;99.90;;;;;;5029302;28;20087;-50
2021/12/08 11:41:56;;;;;;;17.55;8.70;;;6.50;99.90;;;;;;5018740;28;20026;-55
2021/12/08 11:44:25;;;;;;;11.25;8.13;;;6.50;99.90;;;;;;5029177;28;20360;-57
2021/12/08 11:46:57;;;;;;;15.35;8.82;;;6.50;99.90;;;;;;5032273;28;20018;-54
2021/12/08 11:49:24;;;;;;;10.73;7.80;;;6.50;99.90;;;;;;5025775;28;20025;-43
2021/12/08 11:52:02;;;;;;;16.60;8.52;;;6.50;99.90;;;;;;5034162;28;20547;-51
2021/12/08 11:54:48;;;;;;;10.85;8.77;;;6.50;99.90;;;;;;5025188;28;20026;-54
2021/12/08 11:57:21;;;;;;;15.90;8.68;;;6.50;99.90;;;;;;5035882;28;20024;-55
2021/12/08 12:00:00;;;;;;;17.25;10.02;;;6.50;99.90;;;;;;5030943;28;20033;-55
2021/12/08 12:02:31;;;;;;;16.73;9.45;;;6.40;99.90;;;;;;5033461;28;20541;-51
2021/12/08 12:04:57;;;;;;;12.98;9.40;;;6.40;99.90;;;;;;5036354;28;20110;-49
2021/12/08 12:07:23;;;;;;;15.77;9.90;;;6.40;99.90;;;;;;5027337;28;20034;-42
2021/12/08 12:09:49;;;;;;;15.25;9.80;;;6.30;99.90;;;;;;5031399;28;20403;-51
2021/12/08 12:12:16;;;;;;;13.10;9.55;;;6.40;99.90;;;;;;5033184;28;20071;-48
2021/12/08 12:14:42;;;;;;;17.10;10.07;;;6.40;99.90;;;;;;5033684;28;20021;-47
2021/12/08 12:17:07;;;;;;;13.32;9.30;;;6.40;99.90;;;;;;5032966;28;20514;-44
2021/12/08 12:19:44;;;;;;;17.63;10.88;;;6.40;99.90;;;;;;5033471;28;20037;-47
2021/12/08 12:22:27;;;;;;;19.80;11.35;;;6.50;99.90;;;;;;5032728;28;20040;-49
2021/12/08 12:25:19;;;;;;;16.35;10.02;;;6.60;99.90;;;;;;5025628;28;20033;-49
2021/12/08 12:28:05;;;;;;;18.13;11.30;;;6.60;99.90;;;;;;5032158;28;20083;-50
2021/12/08 12:30:50;;;;;;;;;;;6.60;99.90;;;;;;5031697;28;20515;-51
2021/12/08 12:33:22;;;;;;;14.50;10.18;;;6.60;99.90;;;;;;5032408;28;19955;-48
2021/12/08 12:35:56;;;;;;;16.70;10.20;;;6.60;99.90;;;;;;5048860;22;20041;-44
2021/12/08 12:38:34;;;;;;;16.67;9.77;;;6.60;99.90;;;;;;5004806;28;20038;-49
2021/12/08 12:41:00;;;;;;;15.85;10.00;;;6.50;99.90;;;;;;5007110;28;20100;-54
2021/12/08 12:43:33;;;;;;;15.77;9.43;;;6.50;99.90;;;;;;5005878;28;20095;-54
2021/12/08 12:46:12;;;;;;;15.57;10.02;;;6.60;99.90;;;;;;4995699;28;20026;-52
2021/12/08 12:48:39;;;;;;;15.32;9.73;;;6.60;99.90;;;;;;5017242;28;20025;-52
2021/12/08 12:51:07;;;;;;;13.63;10.38;;;6.60;99.90;;;;;;5026062;28;20041;-50
2021/12/08 12:53:53;;;;;;;12.02;9.20;;;6.60;99.90;;;;;;5016128;28;20025;-53
2021/12/08 12:56:27;;;;;;;12.60;8.77;;;6.70;99.90;;;;;;5015071;28;20056;-56
2021/12/08 12:58:56;;;;;;;19.48;10.73;;;6.60;99.90;;;;;;5023674;28;20068;-48
2021/12/08 13:01:34;;;;;;;15.63;9.75;;;6.60;99.90;;;;;;5016674;28;20037;-43
2021/12/08 13:04:09;;;;;;;20.77;10.80;;;6.70;99.90;;;;;;5013738;28;20044;-51
2021/12/08 13:06:42;;;;;;;15.37;10.23;;;6.80;99.90;;;;;;5019126;28;20472;-50
2021/12/08 13:09:29;;;;;;;18.48;11.20;;;6.80;99.90;;;;;;5030930;28;20063;-52
2021/12/08 13:12:20;;;;;;;18.13;11.02;;;6.80;99.90;;;;;;5023993;28;20116;-51
2021/12/08 13:14:48;;;;;;;17.95;11.00;;;6.80;99.90;;;;;;5015331;28;20084;-50
2021/12/08 13:17:25;;;;;;;19.45;11.02;;;6.80;99.90;;;;;;5018720;28;20033;-53
2021/12/08 13:19:55;;;;;;;16.73;10.32;;;6.80;99.90;;;;;;5015456;28;20451;-51
2021/12/08 13:22:49;;;;;;;21.85;11.07;;;6.80;99.90;;;;;;5029070;28;20407;-47
2021/12/08 13:25:42;;;;;;;16.67;11.68;;;6.80;99.90;;;;;;5032824;28;20017;-47
2021/12/08 13:28:11;;;;;;;19.25;11.45;;;6.80;99.90;;;;;;5032579;28;20021;-47
2021/12/08 13:30:47;;;;;;;19.02;11.80;;;6.80;99.90;;;;;;5032190;28;20024;-49
2021/12/08 13:33:41;;;;;;;21.98;12.35;;;6.90;99.90;;;;;;5032779;28;20026;-51
2021/12/08 13:36:31;;;;;;;17.83;11.95;;;6.70;99.90;;;;;;5032351;28;20461;-49
2021/12/08 13:38:57;;;;;;;15.57;10.88;;;6.70;99.90;;;;;;5032062;28;20108;-48
2021/12/08 13:41:24;;;;;;;20.55;12.10;;;6.60;99.90;;;;;;5032501;28;20105;-52
2021/12/08 13:43:50;;;;;;;24.83;12.73;;;6.50;99.90;;;;;;5032404;28;20060;-50
2021/12/08 13:46:42;;;;;;;15.75;10.98;;;6.50;99.90;;;;;;5032214;28;20033;-48
2021/12/08 13:49:16;;;;;;;20.00;12.25;;;6.50;99.90;;;;;;5032139;28;20446;-47
2021/12/08 13:52:01;;;;;;;19.17;11.70;;;6.60;99.90;;;;;;5032622;28;20537;-48
2021/12/08 13:54:26;;;;;;;17.50;11.32;;;6.60;99.90;;;;;;5032381;28;20030;-49
2021/12/08 13:56:53;;;;;;;18.63;11.35;;;6.50;99.90;;;;;;5032940;28;20112;-50
2021/12/08 14:00:00;;;;;;;23.48;12.60;;;6.50;99.90;;;;;;5031972;28;20033;-48
2021/12/08 14:02:38;;;;;;;16.48;12.23;;;6.60;99.90;;;;;;5032720;28;20489;-51
2021/12/08 14:05:12;;;;;;;25.50;12.93;;;6.50;99.90;;;;;;5032750;28;20516;-46
2021/12/08 14:07:40;;;;;;;20.65;12.68;;;6.40;99.90;;;;;;5031326;28;20051;-48
2021/12/08 14:10:09;;;;;;;19.45;11.70;;;6.40;99.90;;;;;;5031630;28;20549;-47